createdAt,value
2017-06-22T05:28:05.063Z,101197.24
2017-06-22T05:30:31.411Z,101200.02
2017-06-22T05:32:57.690Z,101199.29
2017-06-22T05:35:23.931Z,101194.31
2017-06-22T05:37:50.157Z,101197.09
2017-06-22T05:40:16.402Z,101199.80
2017-06-22T05:42:42.826Z,101197.23
2017-06-22T05:45:09.103Z,101201.25
2017-06-22T05:47:35.363Z,101199.13
2017-06-22T05:50:01.591Z,101194.48
2017-06-22T05:52:27.848Z,101196.02
2017-06-22T05:54:54.497Z,101195.83
2017-06-22T05:57:20.791Z,101195.42
2017-06-22T05:59:47.034Z,101191.66
2017-06-22T06:02:13.275Z,101186.50
2017-06-22T06:04:39.505Z,101187.84
2017-06-22T06:07:05.961Z,101187.64
2017-06-22T06:09:32.223Z,101185.13
2017-06-22T06:11:58.463Z,101177.23
2017-06-22T06:14:24.726Z,101178.57
2017-06-22T06:16:50.964Z,101179.34
2017-06-22T06:19:17.196Z,101174.50
2017-06-22T06:21:43.444Z,101178.42
2017-06-22T06:24:09.839Z,101172.85
2017-06-22T06:26:36.073Z,101168.55
2017-06-22T06:29:02.309Z,101168.45
2017-06-22T06:31:28.550Z,101176.38
2017-06-22T06:33:54.794Z,101169.11
2017-06-22T06:36:21.063Z,101174.53
2017-06-22T06:38:47.291Z,101174.09
2017-06-22T06:41:13.520Z,101171.83
2017-06-22T06:43:39.759Z,101172.52
2017-06-22T06:46:05.982Z,101171.33
2017-06-22T06:48:32.234Z,101176.77
2017-06-22T06:50:58.600Z,101167.84
2017-06-22T06:53:24.835Z,101168.98
2017-06-22T06:55:51.051Z,101170.19
2017-06-22T06:58:17.280Z,101169.11
2017-06-22T07:00:43.523Z,101165.13
2017-06-22T07:03:09.787Z,101165.48
2017-06-22T07:05:36.022Z,101172.47
2017-06-22T07:08:02.275Z,101172.80
2017-06-22T07:10:28.553Z,101174.05
2017-06-22T07:12:55.904Z,101170.91
2017-06-22T07:15:22.150Z,101179.69
2017-06-22T07:17:48.407Z,101172.05
2017-06-22T07:20:14.641Z,101176.66
2017-06-22T07:22:41.026Z,101184.98
2017-06-22T07:25:07.307Z,101173.09
2017-06-22T07:27:33.541Z,101174.34
2017-06-22T07:29:59.922Z,101172.40
2017-06-22T07:32:26.163Z,101177.53
2017-06-22T07:34:52.408Z,101179.50
2017-06-22T07:37:18.839Z,101174.35
2017-06-22T07:39:45.062Z,101178.21
2017-06-22T07:42:11.324Z,101180.94
2017-06-22T07:44:37.719Z,101182.06
2017-06-22T07:47:03.954Z,101179.41
2017-06-22T07:49:30.194Z,101184.20
2017-06-22T07:51:56.571Z,101171.19
2017-06-22T07:54:22.830Z,101182.36
2017-06-22T07:56:49.056Z,101180.02
2017-06-22T07:59:15.286Z,101180.83
2017-06-22T08:01:41.543Z,101176.81
2017-06-22T08:04:07.784Z,101182.16
2017-06-22T08:06:34.102Z,101181.93
2017-06-22T08:09:00.528Z,101182.80
2017-06-22T08:11:26.762Z,101181.36
2017-06-22T08:13:53.015Z,101181.63
2017-06-22T08:16:19.389Z,101177.98
2017-06-22T08:18:45.630Z,101172.67
2017-06-22T08:21:11.889Z,101176.97
2017-06-22T08:23:38.137Z,101181.37
2017-06-22T08:26:04.373Z,101180.27
2017-06-22T08:28:30.615Z,101176.70
2017-06-22T08:30:56.856Z,101177.78
2017-06-22T08:33:23.138Z,101176.94
2017-06-22T08:35:49.423Z,101177.98
2017-06-22T08:38:15.810Z,101174.00
2017-06-22T08:40:42.062Z,101176.26
2017-06-22T08:43:20.557Z,101174.02
2017-06-22T08:45:46.795Z,101174.80
2017-06-22T08:48:13.048Z,101179.52
2017-06-22T08:50:39.293Z,101174.62
2017-06-22T08:53:05.527Z,101171.30
2017-06-22T08:55:31.915Z,101165.91
2017-06-22T08:57:58.189Z,101166.99
2017-06-22T09:00:24.451Z,101158.70
2017-06-22T09:02:50.699Z,101166.61
2017-06-22T09:05:16.990Z,101172.27
2017-06-22T09:07:43.393Z,101169.23
2017-06-22T09:10:09.629Z,101159.97
2017-06-22T09:12:35.878Z,101161.91
2017-06-22T09:15:02.145Z,101160.45
2017-06-22T09:17:36.189Z,101164.12
2017-06-22T09:20:02.600Z,101174.76
2017-06-22T09:22:28.843Z,101180.78
2017-06-22T09:24:55.122Z,101171.47
2017-06-22T09:27:21.346Z,101174.41
2017-06-22T09:29:47.583Z,101175.88
2017-06-22T09:32:13.813Z,101177.58
2017-06-22T09:34:40.061Z,101180.75
2017-06-22T09:37:06.463Z,101175.17
2017-06-22T09:39:32.686Z,101172.26
2017-06-22T09:41:58.919Z,101177.89
2017-06-22T09:44:25.159Z,101178.88
2017-06-22T09:46:51.418Z,101177.36
2017-06-22T09:49:17.782Z,101174.91
2017-06-22T09:51:44.023Z,101176.26
2017-06-22T09:54:10.260Z,101179.49
2017-06-22T09:56:36.509Z,101179.79
2017-06-22T09:59:02.763Z,101182.81
2017-06-22T10:01:28.990Z,101183.24
2017-06-22T10:03:55.211Z,101187.50
2017-06-22T10:06:21.614Z,101179.19
2017-06-22T10:08:47.858Z,101180.11
2017-06-22T10:11:14.101Z,101176.77
2017-06-22T10:13:40.487Z,101170.53
2017-06-22T10:17:36.407Z,101169.08
2017-06-22T10:20:02.654Z,101176.77
2017-06-22T10:22:28.930Z,101167.29
2017-06-22T10:24:55.335Z,101163.53
2017-06-22T10:27:21.619Z,101162.94
2017-06-22T10:29:47.855Z,101156.06
2017-06-22T10:32:14.090Z,101151.81
2017-06-22T10:34:40.332Z,101160.86
2017-06-22T10:37:06.564Z,101159.22
2017-06-22T10:39:32.839Z,101146.41
2017-06-22T10:41:59.230Z,101144.84
2017-06-22T10:44:25.483Z,101145.45
2017-06-22T10:46:51.763Z,101146.60
2017-06-22T10:49:18.035Z,101143.22
2017-06-22T10:51:44.526Z,101138.98
2017-06-22T10:54:10.774Z,101124.31
2017-06-22T10:56:37.030Z,101130.72
2017-06-22T10:59:03.435Z,101122.03
2017-06-22T11:01:29.675Z,101122.17
2017-06-22T11:03:55.927Z,101119.19
2017-06-22T11:06:22.169Z,101118.48
2017-06-22T11:08:48.466Z,101112.01
2017-06-22T11:11:14.878Z,101114.45
2017-06-22T11:13:41.121Z,101115.58
2017-06-22T11:17:36.804Z,101122.60
2017-06-22T11:20:03.067Z,101114.33
2017-06-22T11:22:29.321Z,101112.73
2017-06-22T11:24:55.571Z,101114.23
2017-06-22T11:27:21.819Z,101114.65
2017-06-22T11:29:48.077Z,101116.09
2017-06-22T11:32:14.332Z,101110.91
2017-06-22T11:34:40.584Z,101100.56
2017-06-22T11:37:07.581Z,101105.67
2017-06-22T11:39:33.827Z,101112.08
2017-06-22T11:42:00.111Z,101103.12
2017-06-22T11:44:26.378Z,101103.41
2017-06-22T11:46:52.790Z,101095.21
2017-06-22T11:49:19.039Z,101088.02
2017-06-22T11:51:45.281Z,101084.23
2017-06-22T11:54:11.534Z,101074.91
2017-06-22T11:56:37.802Z,101072.70
2017-06-22T11:59:04.063Z,101083.09
2017-06-22T12:01:30.373Z,101080.13
2017-06-22T12:03:56.764Z,101078.04
2017-06-22T12:06:23.024Z,101059.73
2017-06-22T12:08:49.267Z,101060.09
2017-06-22T12:11:15.660Z,101065.55
2017-06-22T12:13:41.923Z,101056.89
2017-06-22T12:17:39.909Z,101076.71
2017-06-22T12:20:06.168Z,101070.42
2017-06-22T12:22:32.416Z,101074.08
2017-06-22T12:24:59.135Z,101076.33
2017-06-22T12:27:25.374Z,101077.81
2017-06-22T12:29:51.662Z,101081.25
2017-06-22T12:32:17.935Z,101067.86
2017-06-22T12:34:44.322Z,101076.01
2017-06-22T12:37:10.733Z,101079.57
2017-06-22T12:39:37.008Z,101090.51
2017-06-22T12:42:04.009Z,101084.86
2017-06-22T12:44:30.300Z,101075.69
2017-06-22T12:46:56.835Z,101084.80
2017-06-22T12:49:23.100Z,101089.53
2017-06-22T12:51:49.341Z,101084.44
2017-06-22T12:54:15.656Z,101078.99
2017-06-22T12:56:41.922Z,101080.95
2017-06-22T12:59:08.205Z,101067.05
2017-06-22T13:01:34.454Z,101058.09
2017-06-22T13:04:00.994Z,101054.42
2017-06-22T13:06:27.246Z,101038.36
2017-06-22T13:08:53.562Z,101043.42
2017-06-22T13:11:20.008Z,101044.20
2017-06-22T13:13:47.006Z,101056.84
2017-06-22T13:17:39.456Z,101056.06
2017-06-22T13:20:05.859Z,101053.38
2017-06-22T13:22:32.383Z,101060.95
2017-06-22T13:24:58.680Z,101070.83
2017-06-22T13:27:24.955Z,101068.55
2017-06-22T13:29:51.211Z,101072.06
2017-06-22T13:32:17.484Z,101067.07
2017-06-22T13:34:44.633Z,101081.33
2017-06-22T13:37:11.652Z,101073.23
2017-06-22T13:39:37.919Z,101067.64
2017-06-22T13:42:04.642Z,101069.04
2017-06-22T13:44:30.880Z,101069.74
2017-06-22T13:46:57.417Z,101054.29
2017-06-22T13:49:24.423Z,101062.02
2017-06-22T13:51:50.672Z,101058.44
2017-06-22T13:54:16.931Z,101070.30
2017-06-22T13:56:43.911Z,101078.52
2017-06-22T13:59:10.175Z,101079.45
2017-06-22T14:01:36.753Z,101072.38
2017-06-22T14:04:03.203Z,101079.43
2017-06-22T14:06:29.435Z,101080.08
2017-06-22T14:08:55.711Z,101081.40
2017-06-22T14:11:21.959Z,101080.51
2017-06-22T14:13:48.232Z,101066.41
2017-06-22T14:17:37.205Z,101049.85
2017-06-22T14:20:05.104Z,101047.53
2017-06-22T14:22:31.481Z,101034.48
2017-06-22T14:24:57.743Z,101041.28
2017-06-22T14:27:23.995Z,101054.77
2017-06-22T14:29:50.245Z,101069.50
2017-06-22T14:32:16.533Z,101053.03
2017-06-22T14:34:42.876Z,101070.73
2017-06-22T14:37:09.151Z,101084.87
2017-06-22T14:39:35.433Z,101072.46
2017-06-22T14:42:01.712Z,101062.75
2017-06-22T14:44:28.103Z,101058.79
2017-06-22T14:47:01.219Z,101056.70
2017-06-22T14:49:28.096Z,101071.77
2017-06-22T14:51:54.353Z,101081.79
2017-06-22T14:54:20.620Z,101093.44
2017-06-22T14:56:47.019Z,101082.42
2017-06-22T14:59:14.050Z,101090.31
2017-06-22T15:01:40.328Z,101105.13
2017-06-22T15:04:06.614Z,101107.39
2017-06-22T15:06:32.911Z,101116.66
2017-06-22T15:08:59.371Z,101093.12
2017-06-22T15:11:25.616Z,101068.63
2017-06-22T15:13:51.877Z,101083.20
2017-06-22T15:17:37.626Z,101145.87
2017-06-22T15:20:05.815Z,101138.88
2017-06-22T15:22:32.101Z,101132.81
2017-06-22T15:24:58.397Z,101095.91
2017-06-22T15:27:24.650Z,101091.95
2017-06-22T15:29:50.915Z,101109.29
2017-06-22T15:32:17.167Z,101131.20
2017-06-22T15:34:44.167Z,101099.28
2017-06-22T15:37:10.411Z,101092.08
2017-06-22T15:39:36.674Z,101099.02
2017-06-22T15:42:03.127Z,101137.32
2017-06-22T15:44:29.417Z,101076.00
2017-06-22T15:46:55.686Z,101134.32
2017-06-22T15:49:21.955Z,101101.84
2017-06-22T15:51:48.197Z,101092.95
2017-06-22T15:54:14.463Z,101115.23
2017-06-22T15:56:40.739Z,101115.39
2017-06-22T15:59:08.463Z,101137.28
2017-06-22T16:01:34.780Z,101136.16
2017-06-22T16:04:01.074Z,101166.72
2017-06-22T16:06:27.336Z,101176.53
2017-06-22T16:08:53.613Z,101160.88
2017-06-22T16:11:20.001Z,101134.39
2017-06-22T16:13:46.268Z,101143.42
2017-06-22T16:17:39.308Z,101155.11
2017-06-22T16:20:06.657Z,101156.61
2017-06-22T16:22:32.923Z,101154.15
2017-06-22T16:24:59.206Z,101149.77
2017-06-22T16:27:25.464Z,101151.70
2017-06-22T17:02:54.615Z,101165.78
2017-06-22T17:05:20.950Z,101172.05
2017-06-22T17:08:08.781Z,101178.76
2017-06-22T17:10:35.141Z,101193.64
2017-06-22T17:13:01.407Z,101191.00
2017-06-22T17:17:37.773Z,101194.27
2017-06-22T17:20:04.254Z,101189.58
2017-06-22T17:22:30.535Z,101194.85
2017-06-22T17:24:56.792Z,101195.66
2017-06-22T17:27:23.064Z,101198.68
2017-06-22T17:29:49.336Z,101199.11
2017-06-22T17:32:15.744Z,101205.73
2017-06-22T17:34:42.026Z,101202.48
2017-06-22T17:37:08.298Z,101210.42
2017-06-22T17:39:34.707Z,101205.88
2017-06-22T17:42:01.062Z,101207.31
2017-06-22T17:44:27.333Z,101216.98
2017-06-22T17:46:53.752Z,101214.53
2017-06-22T17:49:20.032Z,101220.75
2017-06-22T17:51:46.517Z,101217.37
2017-06-22T17:54:12.928Z,101222.84
2017-06-22T17:56:39.176Z,101230.55
2017-06-22T17:59:05.423Z,101229.30
2017-06-22T18:01:31.968Z,101232.42
2017-06-22T18:03:58.244Z,101244.19
2017-06-22T18:06:25.264Z,101248.24
2017-06-22T18:08:51.719Z,101255.02
2017-06-22T18:11:17.984Z,101253.73
2017-06-22T18:13:44.236Z,101260.41
2017-06-22T18:17:35.820Z,101270.86
2017-06-22T18:20:02.116Z,101273.33
2017-06-22T18:22:29.839Z,101268.53
2017-06-22T18:24:56.242Z,101278.91
2017-06-22T18:27:22.507Z,101291.87
2017-06-22T18:29:48.792Z,101286.28
2017-06-22T18:32:15.199Z,101283.41
2017-06-22T18:34:41.490Z,101287.80
2017-06-22T18:37:07.975Z,101274.37
2017-06-22T18:39:34.392Z,101267.94
2017-06-22T18:42:00.698Z,101272.23
2017-06-22T18:44:26.956Z,101277.64
2017-06-22T18:46:53.640Z,101274.22
2017-06-22T18:49:19.901Z,101286.83
2017-06-22T18:51:46.159Z,101275.02
2017-06-22T18:54:12.547Z,101283.16
2017-06-22T18:56:38.835Z,101291.94
2017-06-22T18:59:05.084Z,101299.77
2017-06-22T19:01:31.737Z,101300.96
2017-06-22T19:03:58.007Z,101303.77
2017-06-22T19:06:24.266Z,101315.59
2017-06-22T19:08:50.715Z,101315.17
2017-06-22T19:11:16.977Z,101317.46
2017-06-22T19:13:43.288Z,101309.94
2017-06-22T19:17:35.454Z,101305.09
2017-06-22T19:20:01.742Z,101310.27
2017-06-22T19:22:27.971Z,101319.95
2017-06-22T19:24:55.392Z,101313.51
2017-06-22T19:27:21.636Z,101321.91
2017-06-22T19:29:47.898Z,101327.84
2017-06-22T19:32:14.291Z,101317.25
2017-06-22T19:34:40.587Z,101327.01
2017-06-22T19:37:06.852Z,101332.30
2017-06-22T19:39:33.352Z,101331.23
2017-06-22T19:41:59.642Z,101340.29
2017-06-22T19:44:25.914Z,101340.05
2017-06-22T19:46:52.358Z,101336.38
2017-06-22T19:49:18.759Z,101347.95
2017-06-22T19:51:45.010Z,101352.14
2017-06-22T19:54:11.412Z,101353.59
2017-06-22T19:56:37.663Z,101339.22
2017-06-22T19:59:03.923Z,101345.20
2017-06-22T20:01:30.323Z,101346.30
2017-06-22T20:03:56.592Z,101356.14
2017-06-22T20:06:23.416Z,101361.83
2017-06-22T20:08:49.859Z,101364.06
2017-06-22T20:11:16.134Z,101364.72
2017-06-22T20:13:42.456Z,101372.34
2017-06-22T20:17:36.663Z,101379.32
2017-06-22T20:20:02.940Z,101383.19
2017-06-22T20:22:29.213Z,101381.66
2017-06-22T20:24:58.974Z,101382.69
2017-06-22T20:27:25.273Z,101386.61
2017-06-22T20:29:51.532Z,101381.44
2017-06-22T20:32:18.043Z,101388.11
2017-06-22T20:34:44.331Z,101397.16
2017-06-22T20:37:10.675Z,101386.19
2017-06-22T20:39:37.216Z,101384.47
2017-06-22T20:42:03.515Z,101394.94
2017-06-22T20:44:29.776Z,101398.42
2017-06-22T20:46:56.216Z,101389.02
2017-06-22T20:49:22.523Z,101395.91
2017-06-22T20:51:48.790Z,101393.19
2017-06-22T20:54:15.193Z,101403.75
2017-06-22T20:56:41.451Z,101408.80
2017-06-22T20:59:07.701Z,101407.03
2017-06-22T21:01:34.091Z,101404.69
2017-06-22T21:04:00.384Z,101414.80
2017-06-22T21:06:26.643Z,101423.97
2017-06-22T21:08:53.895Z,101424.95
2017-06-22T21:11:20.168Z,101432.86
2017-06-22T21:13:46.439Z,101428.45
2017-06-22T21:17:36.298Z,101437.39
2017-06-22T21:20:02.577Z,101428.98
2017-06-22T21:22:28.835Z,101445.71
2017-06-22T21:24:55.302Z,101444.40
2017-06-22T21:27:24.931Z,101437.80
2017-06-22T21:29:51.207Z,101442.17
2017-06-22T21:32:17.607Z,101448.27
2017-06-22T21:34:43.900Z,101444.41
2017-06-22T21:37:10.161Z,101442.80
2017-06-22T21:39:36.550Z,101449.28
2017-06-22T21:42:02.828Z,101457.69
2017-06-22T21:44:29.097Z,101456.58
2017-06-22T21:46:55.489Z,101458.44
2017-06-22T21:49:21.756Z,101466.47
2017-06-22T21:51:48.017Z,101467.25
2017-06-22T21:54:14.483Z,101464.05
2017-06-22T21:56:40.753Z,101468.28
2017-06-22T21:59:07.047Z,101467.05
2017-06-22T22:01:33.474Z,101473.33
2017-06-22T22:03:59.811Z,101480.05
2017-06-22T22:06:26.087Z,101472.15
2017-06-22T22:08:52.567Z,101476.55
2017-06-22T22:11:18.824Z,101478.89
2017-06-22T22:13:45.079Z,101480.45
2017-06-22T22:17:36.309Z,101480.91
2017-06-22T22:20:02.606Z,101481.02
2017-06-22T22:22:28.913Z,101486.15
2017-06-22T22:24:55.303Z,101480.28
2017-06-22T22:27:21.534Z,101470.59
2017-06-22T22:29:49.099Z,101483.39
2017-06-22T22:32:15.481Z,101497.39
2017-06-22T22:34:41.725Z,101502.05
2017-06-22T22:37:07.984Z,101497.26
2017-06-22T22:39:34.389Z,101495.03
2017-06-22T22:42:00.637Z,101496.45
2017-06-22T22:44:26.883Z,101498.41
2017-06-22T22:46:53.300Z,101499.17
2017-06-22T22:49:19.547Z,101510.03
2017-06-22T22:51:45.794Z,101508.04
2017-06-22T22:54:12.209Z,101512.94
2017-06-22T22:56:38.440Z,101513.14
2017-06-22T22:59:04.705Z,101507.53
2017-06-22T23:01:31.177Z,101507.70
2017-06-22T23:03:57.404Z,101502.03
2017-06-22T23:06:23.667Z,101500.91
2017-06-22T23:08:50.170Z,101498.06
2017-06-22T23:11:16.401Z,101501.31
2017-06-22T23:13:42.649Z,101506.42
2017-06-22T23:17:37.458Z,101504.91
2017-06-22T23:20:03.747Z,101509.31
2017-06-22T23:22:29.974Z,101514.72
2017-06-22T23:24:56.425Z,101514.08
2017-06-22T23:27:22.655Z,101504.91
2017-06-22T23:29:49.597Z,101509.78
2017-06-22T23:32:15.991Z,101517.22
2017-06-22T23:34:42.252Z,101518.39
2017-06-22T23:37:08.526Z,101519.81
2017-06-22T23:39:34.902Z,101513.28
2017-06-22T23:42:01.142Z,101512.17
2017-06-22T23:44:27.395Z,101521.99
2017-06-22T23:46:53.801Z,101519.73
2017-06-22T23:49:20.048Z,101518.82
2017-06-22T23:51:46.289Z,101520.22
2017-06-22T23:54:12.688Z,101523.06
2017-06-22T23:56:38.959Z,101518.27
2017-06-22T23:59:05.267Z,101529.53
